Time;durP1;ratioP1;P1;durP2;ratioP2;P2;SDS_P1;SDS_P2;PMS_P1;PMS_P2;Temp;Humidity;BMP_temperature;BMP_pressure;BME280_temperature;BME280_humidity;BME280_pressure;Samples;Min_cycle;Max_cycle;Signal;HPM_P1;HPM_P2
2022/05/17 00:00:29;;;;;;;7.97;6.97;;;13.80;99.90;;;;;;5070745;28;20450;-68
2022/05/17 00:02:57;;;;;;;7.50;6.20;;;13.70;99.90;;;;;;5071903;28;20451;-68
2022/05/17 00:05:24;;;;;;;10.10;6.90;;;13.60;99.90;;;;;;5072397;28;20474;-68
2022/05/17 00:07:52;;;;;;;6.97;6.27;;;13.60;99.90;;;;;;5072233;28;20461;-68
2022/05/17 00:10:21;;;;;;;8.10;7.10;;;13.60;99.90;;;;;;5071735;28;20451;-68
2022/05/17 00:12:48;;;;;;;9.80;7.10;;;13.70;99.90;;;;;;5072111;28;20547;-68
2022/05/17 00:15:16;;;;;;;9.60;7.30;;;13.70;99.90;;;;;;5071865;28;21258;-68
2022/05/17 00:17:43;;;;;;;9.33;7.20;;;13.70;99.90;;;;;;5071856;28;20447;-68
2022/05/17 00:20:11;;;;;;;11.77;7.17;;;13.60;99.90;;;;;;5071376;28;20506;-68
2022/05/17 00:22:40;;;;;;;9.43;7.20;;;13.60;99.90;;;;;;5072163;28;20526;-68
2022/05/17 00:25:10;;;;;;;8.17;7.43;;;13.50;99.90;;;;;;5072035;28;20525;-68
2022/05/17 00:27:37;;;;;;;8.43;7.10;;;13.50;99.90;;;;;;5071985;28;20571;-68
2022/05/17 00:30:06;;;;;;;9.87;7.67;;;13.50;99.90;;;;;;5071430;28;20490;-68
2022/05/17 00:32:33;;;;;;;8.70;7.90;;;13.60;99.90;;;;;;5071956;28;20455;-68
2022/05/17 00:35:00;;;;;;;9.63;7.30;;;13.60;99.90;;;;;;5072192;28;20482;-68
2022/05/17 00:37:27;;;;;;;9.23;7.13;;;13.50;99.90;;;;;;5071964;28;20447;-68
2022/05/17 00:39:54;;;;;;;8.43;7.10;;;13.50;99.90;;;;;;5071719;28;20502;-68
2022/05/17 00:42:22;;;;;;;8.20;7.00;;;13.50;99.90;;;;;;5071794;28;20455;-68
2022/05/17 00:44:51;;;;;;;8.47;7.43;;;13.40;99.90;;;;;;5071942;28;20502;-69
2022/05/17 00:47:21;;;;;;;8.63;7.53;;;13.30;99.90;;;;;;5071796;28;20443;-68
2022/05/17 00:49:53;;;;;;;7.67;6.90;;;13.20;99.90;;;;;;5071792;28;20471;-68
2022/05/17 00:52:24;;;;;;;7.97;6.23;;;13.20;99.90;;;;;;5071535;28;20977;-69
2022/05/17 00:54:54;;;;;;;13.00;6.93;;;13.20;99.90;;;;;;5071570;28;20554;-68
2022/05/17 00:57:30;;;;;;;8.20;7.17;;;13.20;99.90;;;;;;5071272;28;20447;-68
2022/05/17 01:00:01;;;;;;;8.73;7.70;;;13.10;99.90;;;;;;5071103;28;20495;-69
2022/05/17 01:02:30;;;;;;;10.60;8.07;;;13.10;99.90;;;;;;5071007;28;20545;-68
2022/05/17 01:04:57;;;;;;;11.67;8.10;;;13.10;99.90;;;;;;5071152;28;20454;-69
2022/05/17 01:07:29;;;;;;;11.67;8.20;;;13.10;99.90;;;;;;5070921;28;20548;-69
2022/05/17 01:09:57;;;;;;;10.97;8.13;;;13.10;99.90;;;;;;5070851;28;20490;-69
2022/05/17 01:12:25;;;;;;;13.67;8.13;;;13.00;99.90;;;;;;5070575;28;20455;-67
2022/05/17 01:14:57;;;;;;;8.53;7.13;;;13.00;99.90;;;;;;5070867;28;20521;-67
2022/05/17 01:17:24;;;;;;;9.80;8.10;;;13.00;99.90;;;;;;5070935;28;20443;-67
2022/05/17 01:19:51;;;;;;;9.63;7.20;;;13.00;99.90;;;;;;5070415;28;20473;-67
2022/05/17 01:22:19;;;;;;;14.93;8.47;;;12.90;99.90;;;;;;5070661;28;20461;-67
2022/05/17 01:24:46;;;;;;;9.70;7.47;;;12.90;99.90;;;;;;5070747;28;20530;-67
2022/05/17 01:27:18;;;;;;;11.03;7.00;;;12.90;99.90;;;;;;5070737;28;20540;-67
2022/05/17 01:29:47;;;;;;;7.70;6.70;;;12.90;99.90;;;;;;5070402;28;20495;-67
2022/05/17 01:32:15;;;;;;;9.03;6.87;;;12.80;99.90;;;;;;5070519;28;20458;-67
2022/05/17 01:34:43;;;;;;;9.20;6.70;;;12.80;99.90;;;;;;5070253;28;20471;-66
2022/05/17 01:37:11;;;;;;;8.67;7.73;;;12.70;99.90;;;;;;5070776;28;20509;-67
2022/05/17 01:39:39;;;;;;;10.37;6.90;;;12.70;99.90;;;;;;5070310;28;20485;-66
2022/05/17 01:42:07;;;;;;;9.40;7.67;;;12.70;99.90;;;;;;5070422;28;20454;-67
2022/05/17 01:44:35;;;;;;;10.37;7.00;;;12.70;99.90;;;;;;5070461;28;20530;-67
2022/05/17 01:47:02;;;;;;;9.17;6.37;;;12.80;99.90;;;;;;5070380;28;20455;-67
2022/05/17 01:49:29;;;;;;;13.43;7.60;;;12.80;99.90;;;;;;5070399;28;20485;-68
2022/05/17 01:51:56;;;;;;;10.43;7.27;;;12.70;99.90;;;;;;5069847;28;20447;-69
2022/05/17 01:54:23;;;;;;;7.50;6.80;;;12.70;99.90;;;;;;5070153;28;21019;-69
2022/05/17 01:56:51;;;;;;;11.23;7.77;;;12.70;99.90;;;;;;5070042;28;20494;-67
2022/05/17 01:59:18;;;;;;;8.70;7.80;;;12.60;99.90;;;;;;5069952;28;20463;-67
2022/05/17 02:01:45;;;;;;;9.80;7.40;;;12.50;99.90;;;;;;5069250;28;20462;-67
2022/05/17 02:04:12;;;;;;;9.80;7.27;;;12.60;99.90;;;;;;5070186;28;20540;-67
2022/05/17 02:06:39;;;;;;;10.87;7.53;;;12.60;99.90;;;;;;5070030;28;20456;-67
2022/05/17 02:09:06;;;;;;;10.63;8.00;;;12.60;99.90;;;;;;5069816;28;20989;-67
2022/05/17 02:11:33;;;;;;;12.87;9.60;;;12.50;99.90;;;;;;5069716;28;20526;-67
2022/05/17 02:14:01;;;;;;;14.80;8.90;;;12.50;99.90;;;;;;5069591;28;20443;-67
2022/05/17 02:16:29;;;;;;;10.70;8.83;;;12.50;99.90;;;;;;5069611;28;20483;-68
2022/05/17 02:18:56;;;;;;;10.07;8.93;;;12.50;99.90;;;;;;5069721;28;20459;-67
2022/05/17 02:21:22;;;;;;;10.27;8.00;;;12.50;99.90;;;;;;5069561;28;20476;-67
2022/05/17 02:23:49;;;;;;;11.47;9.73;;;12.50;99.90;;;;;;5069171;28;20446;-68
2022/05/17 02:26:16;;;;;;;17.17;9.20;;;12.50;99.90;;;;;;5069742;28;20522;-67
2022/05/17 02:28:43;;;;;;;8.17;7.33;;;12.50;99.90;;;;;;5069370;28;20473;-67
2022/05/17 02:31:13;;;;;;;8.20;7.10;;;12.40;99.90;;;;;;5069324;28;20964;-67
2022/05/17 02:33:40;;;;;;;9.03;7.20;;;12.50;99.90;;;;;;5069749;28;20459;-67
2022/05/17 02:36:07;;;;;;;9.30;7.47;;;12.40;99.90;;;;;;5069704;28;20479;-67
2022/05/17 02:38:34;;;;;;;9.53;7.20;;;12.40;99.90;;;;;;5069488;28;20846;-67
2022/05/17 02:41:00;;;;;;;11.13;8.20;;;12.40;99.90;;;;;;5069427;28;20821;-67
2022/05/17 02:43:27;;;;;;;8.63;7.20;;;12.40;99.90;;;;;;5069362;28;20832;-67
2022/05/17 02:45:54;;;;;;;7.50;6.70;;;12.40;99.90;;;;;;5069721;28;20451;-67
2022/05/17 02:48:22;;;;;;;8.40;7.47;;;12.40;99.90;;;;;;5069885;28;20463;-67
2022/05/17 02:50:49;;;;;;;9.27;8.27;;;12.30;99.90;;;;;;5069204;28;20974;-67
2022/05/17 02:53:16;;;;;;;14.83;8.40;;;12.30;99.90;;;;;;5069546;28;20530;-67
2022/05/17 02:55:43;;;;;;;11.37;8.60;;;12.30;99.90;;;;;;5069385;28;20533;-67
2022/05/17 02:58:10;;;;;;;11.23;8.70;;;12.20;99.90;;;;;;5069432;28;20478;-67
2022/05/17 03:00:37;;;;;;;10.30;8.40;;;12.20;99.90;;;;;;5068929;28;20446;-67
2022/05/17 03:03:04;;;;;;;10.00;8.37;;;12.10;99.90;;;;;;5069918;28;20453;-67
2022/05/17 03:05:32;;;;;;;10.10;7.27;;;12.20;99.90;;;;;;5069395;28;20454;-67
2022/05/17 03:07:59;;;;;;;10.63;8.67;;;12.20;99.90;;;;;;5069474;28;20932;-68
2022/05/17 03:10:26;;;;;;;10.57;8.80;;;12.20;99.90;;;;;;5069233;28;20458;-67
2022/05/17 03:12:53;;;;;;;13.13;9.97;;;12.10;99.90;;;;;;5069826;28;20443;-67
2022/05/17 03:15:21;;;;;;;10.37;8.20;;;12.00;99.90;;;;;;5069619;28;20493;-67
2022/05/17 03:17:48;;;;;;;13.10;8.70;;;12.10;99.90;;;;;;5069698;28;20454;-67
2022/05/17 03:20:15;;;;;;;11.43;8.60;;;12.00;99.90;;;;;;5069274;28;20447;-67
2022/05/17 03:22:43;;;;;;;10.60;8.83;;;12.10;99.90;;;;;;5069577;28;20447;-66
2022/05/17 03:25:10;;;;;;;12.37;9.20;;;12.10;99.90;;;;;;5069315;28;20459;-67
2022/05/17 03:27:38;;;;;;;12.17;8.13;;;12.10;99.90;;;;;;5071693;28;20451;-67
2022/05/17 03:30:06;;;;;;;9.43;8.30;;;12.10;99.90;;;;;;5068920;28;20471;-67
2022/05/17 03:32:33;;;;;;;10.67;8.97;;;12.00;99.90;;;;;;5069167;28;20450;-68
2022/05/17 03:35:00;;;;;;;10.43;9.10;;;12.00;99.90;;;;;;5071361;28;20562;-67
2022/05/17 03:37:27;;;;;;;9.27;8.37;;;11.90;99.90;;;;;;5072592;28;20516;-67
2022/05/17 03:39:56;;;;;;;8.83;7.90;;;12.00;99.90;;;;;;5072357;28;20475;-67
2022/05/17 03:42:22;;;;;;;11.60;9.50;;;11.90;99.90;;;;;;5072637;28;20483;-67
2022/05/17 03:44:49;;;;;;;10.73;9.60;;;12.00;99.90;;;;;;5072806;28;20461;-67
2022/05/17 03:47:16;;;;;;;10.57;8.77;;;12.10;99.90;;;;;;5072513;28;20895;-67
2022/05/17 03:49:43;;;;;;;11.43;8.60;;;12.10;99.90;;;;;;5072504;28;20481;-67
2022/05/17 03:52:10;;;;;;;8.90;8.00;;;12.00;99.90;;;;;;5071472;28;20443;-67
2022/05/17 03:54:38;;;;;;;13.83;8.60;;;12.00;99.90;;;;;;5072170;28;20958;-67
2022/05/17 03:57:08;;;;;;;9.73;8.10;;;12.00;99.90;;;;;;5071519;28;20435;-67
2022/05/17 03:59:35;;;;;;;11.40;9.53;;;12.00;99.90;;;;;;5072398;28;20510;-67
2022/05/17 04:02:02;;;;;;;10.00;8.90;;;11.90;99.90;;;;;;5071565;28;21024;-67
2022/05/17 04:04:29;;;;;;;10.50;9.23;;;11.90;99.90;;;;;;5072137;28;20451;-68
2022/05/17 04:06:55;;;;;;;11.83;10.20;;;12.00;99.90;;;;;;5071958;28;20443;-68
2022/05/17 04:09:22;;;;;;;12.70;9.37;;;12.00;99.90;;;;;;5072177;28;20501;-68
2022/05/17 04:11:49;;;;;;;17.17;10.20;;;12.00;99.90;;;;;;5071970;28;20446;-67
2022/05/17 04:14:17;;;;;;;14.27;9.20;;;12.10;99.90;;;;;;5071990;28;20538;-67
2022/05/17 04:16:44;;;;;;;11.43;7.87;;;12.10;99.90;;;;;;5072014;28;20524;-67
2022/05/17 04:19:14;;;;;;;14.77;9.70;;;12.20;99.90;;;;;;5071776;28;20463;-67
2022/05/17 04:21:41;;;;;;;16.10;9.73;;;12.20;99.90;;;;;;5071555;28;20451;-67
2022/05/17 04:24:08;;;;;;;10.97;9.80;;;12.30;99.90;;;;;;5071907;28;20453;-67
2022/05/17 04:26:35;;;;;;;12.37;8.60;;;12.30;99.90;;;;;;5071696;28;20937;-68
2022/05/17 04:29:03;;;;;;;13.10;9.30;;;12.40;99.90;;;;;;5071492;28;20525;-67
2022/05/17 04:31:31;;;;;;;13.70;9.10;;;12.40;99.90;;;;;;5071318;28;20451;-68
2022/05/17 04:33:58;;;;;;;11.37;9.10;;;12.40;99.90;;;;;;5071397;28;20448;-66
2022/05/17 04:36:25;;;;;;;12.03;9.00;;;12.50;99.90;;;;;;5071483;28;20574;-67
2022/05/17 04:38:52;;;;;;;14.13;9.17;;;12.60;99.90;;;;;;5071539;28;20585;-66
2022/05/17 04:41:19;;;;;;;9.80;8.73;;;12.70;99.90;;;;;;5071280;28;20964;-66
2022/05/17 04:43:47;;;;;;;10.40;8.07;;;12.80;99.90;;;;;;5071269;28;20457;-66
2022/05/17 04:46:14;;;;;;;11.07;7.80;;;12.90;99.90;;;;;;5070783;28;20806;-66
2022/05/17 04:48:42;;;;;;;13.40;9.30;;;12.80;99.90;;;;;;5071365;28;20465;-68
2022/05/17 04:51:09;;;;;;;9.17;7.30;;;12.90;99.90;;;;;;5070851;28;20451;-67
2022/05/17 04:53:36;;;;;;;11.30;8.50;;;13.00;99.90;;;;;;5071012;28;20446;-68
2022/05/17 04:56:04;;;;;;;10.77;8.73;;;13.10;99.90;;;;;;5070907;28;20479;-68
2022/05/17 04:58:31;;;;;;;9.90;8.00;;;13.10;99.90;;;;;;5070973;28;20545;-68
2022/05/17 05:00:58;;;;;;;10.27;8.93;;;13.20;99.90;;;;;;5070381;28;20550;-68
2022/05/17 05:03:24;;;;;;;10.07;8.90;;;13.20;99.90;;;;;;5070977;28;20451;-67
2022/05/17 05:05:53;;;;;;;11.37;9.30;;;13.20;99.90;;;;;;5069116;28;20530;-69
2022/05/17 05:08:20;;;;;;;10.00;9.00;;;13.30;99.90;;;;;;5067401;28;20981;-67
2022/05/17 05:10:47;;;;;;;13.67;9.80;;;13.30;99.90;;;;;;5066535;28;20487;-67
2022/05/17 05:13:16;;;;;;;14.10;10.80;;;13.40;99.90;;;;;;5065648;28;20974;-66
2022/05/17 05:15:43;;;;;;;10.70;9.40;;;13.50;99.90;;;;;;5066066;28;21000;-67
2022/05/17 05:18:10;;;;;;;12.00;9.80;;;13.60;99.90;;;;;;5068802;28;20471;-66
2022/05/17 05:20:38;;;;;;;11.07;9.30;;;13.70;99.90;;;;;;5064829;28;20965;-67
2022/05/17 05:23:07;;;;;;;13.83;10.37;;;13.70;99.90;;;;;;5068849;28;20530;-66
2022/05/17 05:25:35;;;;;;;10.13;9.03;;;13.80;99.90;;;;;;5068073;28;20449;-68
2022/05/17 05:28:03;;;;;;;13.37;10.60;;;13.90;99.90;;;;;;5066050;28;20455;-67
2022/05/17 05:30:30;;;;;;;15.63;10.57;;;13.80;99.90;;;;;;5065749;28;20642;-67
2022/05/17 05:32:57;;;;;;;12.43;9.50;;;13.90;99.90;;;;;;5067490;28;20808;-68
2022/05/17 05:35:25;;;;;;;11.17;9.97;;;14.00;99.90;;;;;;5069208;28;20439;-68
2022/05/17 05:37:53;;;;;;;13.37;10.47;;;14.10;99.90;;;;;;5069816;28;21251;-67
2022/05/17 05:40:22;;;;;;;13.20;10.07;;;14.20;99.90;;;;;;5069980;28;20959;-67
2022/05/17 05:42:50;;;;;;;13.40;9.80;;;14.30;99.90;;;;;;5069426;28;20863;-67
2022/05/17 05:45:19;;;;;;;14.30;10.43;;;14.40;99.90;;;;;;5069325;28;20490;-67
2022/05/17 05:47:46;;;;;;;20.50;10.50;;;14.50;99.90;;;;;;5067854;28;20998;-67
2022/05/17 05:50:13;;;;;;;15.93;11.53;;;14.70;99.90;;;;;;5069587;28;20449;-67
2022/05/17 05:52:40;;;;;;;17.33;11.77;;;14.80;99.90;;;;;;5069976;28;20952;-67
2022/05/17 05:55:11;;;;;;;12.93;10.10;;;15.00;99.90;;;;;;5069445;28;20442;-66
2022/05/17 05:57:39;;;;;;;12.03;9.30;;;15.10;99.90;;;;;;5069215;28;20482;-67
2022/05/17 06:00:08;;;;;;;12.03;9.30;;;15.20;99.90;;;;;;5069721;28;20462;-67
2022/05/17 06:02:35;;;;;;;10.30;7.97;;;15.30;99.90;;;;;;5070117;28;20520;-67
2022/05/17 06:05:02;;;;;;;10.77;8.17;;;15.50;99.90;;;;;;5070257;28;20534;-67
2022/05/17 06:07:29;;;;;;;8.63;7.73;;;15.60;99.90;;;;;;5070317;28;20458;-67
2022/05/17 06:09:55;;;;;;;9.60;8.50;;;15.80;99.90;;;;;;5069583;28;20984;-67
2022/05/17 06:12:22;;;;;;;11.10;9.90;;;15.90;99.90;;;;;;5070366;28;20538;-67
2022/05/17 06:14:50;;;;;;;11.00;9.23;;;16.00;99.90;;;;;;5070073;28;20451;-67
2022/05/17 06:17:19;;;;;;;11.27;10.10;;;16.10;99.90;;;;;;5070036;28;20484;-67
2022/05/17 06:19:47;;;;;;;11.23;9.83;;;16.10;99.90;;;;;;5069608;28;20516;-67
2022/05/17 06:22:14;;;;;;;13.40;9.80;;;16.20;99.90;;;;;;5069697;28;20451;-66
2022/05/17 06:24:40;;;;;;;11.83;10.03;;;16.30;99.90;;;;;;5069736;28;21008;-67
2022/05/17 06:27:07;;;;;;;11.17;9.30;;;16.40;99.90;;;;;;5069687;28;20525;-67
2022/05/17 06:29:34;;;;;;;16.40;9.73;;;16.50;99.90;;;;;;5067768;28;20482;-67
2022/05/17 06:32:03;;;;;;;16.67;9.73;;;16.60;99.90;;;;;;5069021;28;21019;-67
2022/05/17 06:34:30;;;;;;;13.93;9.67;;;16.70;99.90;;;;;;5069479;28;20876;-67
2022/05/17 06:36:57;;;;;;;18.10;11.60;;;16.80;99.90;;;;;;5069334;28;20536;-67
2022/05/17 06:39:24;;;;;;;15.80;9.80;;;16.90;99.90;;;;;;5066712;28;20495;-67
2022/05/17 06:41:53;;;;;;;11.30;10.10;;;17.10;99.90;;;;;;5066122;28;20838;-67
2022/05/17 06:44:20;;;;;;;9.67;8.77;;;17.20;99.90;;;;;;5064360;28;20909;-66
2022/05/17 06:46:47;;;;;;;12.97;9.23;;;17.20;99.90;;;;;;5070430;28;20475;-67
2022/05/17 06:49:15;;;;;;;13.07;9.20;;;17.40;99.90;;;;;;5063265;28;20465;-67
2022/05/17 06:51:42;;;;;;;11.30;9.90;;;17.50;99.90;;;;;;5063802;28;20447;-66
2022/05/17 06:54:10;;;;;;;11.03;8.87;;;17.60;99.90;;;;;;5063487;28;20447;-68
2022/05/17 06:56:36;;;;;;;10.43;8.33;;;17.70;99.90;;;;;;5065670;28;20471;-67
2022/05/17 06:59:04;;;;;;;11.03;8.40;;;17.90;99.90;;;;;;5066495;28;20494;-67
2022/05/17 07:01:31;;;;;;;11.87;8.57;;;18.00;99.90;;;;;;5068921;28;20532;-67
2022/05/17 07:03:58;;;;;;;10.60;8.53;;;18.10;99.90;;;;;;5069167;28;20490;-67
2022/05/17 07:06:26;;;;;;;11.00;7.53;;;18.20;99.90;;;;;;5068297;28;20508;-67
2022/05/17 07:08:53;;;;;;;10.43;7.13;;;18.40;99.90;;;;;;5066985;28;20467;-68
2022/05/17 07:14:05;;;;;;;9.50;6.90;;;18.50;99.90;;;;;;5071448;28;20434;-67
2022/05/17 07:16:31;;;;;;;8.77;6.70;;;18.70;99.90;;;;;;5071185;28;20477;-68
2022/05/17 07:18:58;;;;;;;7.67;6.10;;;18.80;99.90;;;;;;5071432;28;20477;-67
2022/05/17 07:21:26;;;;;;;8.57;6.13;;;19.00;99.90;;;;;;5071109;28;20987;-68
2022/05/17 07:23:53;;;;;;;8.43;6.37;;;19.20;99.90;;;;;;5073085;28;20443;-67
2022/05/17 07:26:20;;;;;;;8.53;6.60;;;19.30;99.90;;;;;;5073064;28;20475;-67
2022/05/17 07:28:49;;;;;;;9.53;7.10;;;19.50;99.90;;;;;;5072718;28;20467;-68
2022/05/17 07:31:15;;;;;;;7.50;6.03;;;19.40;99.90;;;;;;5072512;28;20553;-67
2022/05/17 07:33:44;;;;;;;7.07;6.37;;;19.60;99.90;;;;;;5072722;28;20836;-67
2022/05/17 07:36:11;;;;;;;7.23;5.80;;;19.80;99.90;;;;;;5072807;28;20565;-68
2022/05/17 07:38:40;;;;;;;8.83;6.63;;;19.90;99.90;;;;;;5072603;28;20463;-67
2022/05/17 07:41:07;;;;;;;8.63;6.73;;;20.10;99.90;;;;;;5072352;28;20459;-67
2022/05/17 07:43:35;;;;;;;6.90;6.00;;;20.20;99.90;;;;;;5072475;28;20461;-67
2022/05/17 07:46:01;;;;;;;12.10;6.63;;;20.40;99.90;;;;;;5072700;28;20473;-68
2022/05/17 07:48:29;;;;;;;10.87;6.90;;;20.40;99.90;;;;;;5072283;28;20566;-68
2022/05/17 07:50:56;;;;;;;10.10;6.30;;;20.50;99.90;;;;;;5072345;28;20538;-68
2022/05/17 07:53:23;;;;;;;8.40;5.80;;;20.60;99.90;;;;;;5072447;28;20451;-67
2022/05/17 07:55:51;;;;;;;9.40;6.83;;;20.70;99.90;;;;;;5072393;28;20451;-67
2022/05/17 07:58:20;;;;;;;7.10;6.20;;;20.80;99.90;;;;;;5072367;28;20497;-68
2022/05/17 08:00:47;;;;;;;7.87;5.43;;;20.90;99.90;;;;;;5072096;28;20443;-67
2022/05/17 08:03:16;;;;;;;7.43;6.00;;;20.90;99.90;;;;;;5072393;28;20447;-67
2022/05/17 08:05:43;;;;;;;6.93;6.23;;;21.10;99.90;;;;;;5072534;28;20458;-68
2022/05/17 08:08:10;;;;;;;6.90;5.27;;;21.30;99.90;;;;;;5072065;28;20532;-67
2022/05/17 08:10:38;;;;;;;8.17;5.33;;;21.40;99.90;;;;;;5071723;28;20535;-67
2022/05/17 08:13:07;;;;;;;5.97;5.37;;;21.60;99.90;;;;;;5072076;28;20458;-68
2022/05/17 08:15:34;;;;;;;5.33;4.83;;;21.70;99.90;;;;;;5072381;28;20523;-68
2022/05/17 08:18:02;;;;;;;7.00;5.40;;;22.00;99.90;;;;;;5072150;28;20509;-67
2022/05/17 08:20:30;;;;;;;7.17;5.40;;;22.00;99.90;;;;;;5070802;28;20454;-68
2022/05/17 08:22:57;;;;;;;6.50;5.10;;;22.00;99.90;;;;;;5071540;28;20940;-67
2022/05/17 08:28:11;;;;;;;9.43;5.77;;;22.30;99.90;;;;;;5071921;28;20443;-68
2022/05/17 08:30:38;;;;;;;8.10;5.70;;;22.60;99.90;;;;;;5071437;28;20457;-68
2022/05/17 08:33:17;;;;;;;7.73;4.97;;;22.80;99.90;;;;;;5072185;28;20451;-67
2022/05/17 08:35:46;;;;;;;7.87;5.20;;;23.20;99.90;;;;;;5071661;28;20486;-67
2022/05/17 08:38:16;;;;;;;6.63;5.03;;;23.20;99.90;;;;;;5071633;28;21019;-68
2022/05/17 08:40:54;;;;;;;8.73;5.03;;;23.20;99.90;;;;;;5071699;28;20449;-68
2022/05/17 08:43:28;;;;;;;5.20;4.00;;;23.30;99.90;;;;;;5072109;28;20544;-67
2022/05/17 08:46:22;;;;;;;6.27;4.33;;;23.60;99.90;;;;;;5071815;28;20940;-68
2022/05/17 08:48:53;;;;;;;6.40;4.37;;;23.80;99.90;;;;;;5066779;28;21020;-67
2022/05/17 08:51:33;;;;;;;5.60;3.77;;;24.10;99.90;;;;;;5071287;28;21018;-67
2022/05/17 08:54:00;;;;;;;5.33;3.90;;;24.00;99.90;;;;;;5071750;28;20474;-67
2022/05/17 08:56:30;;;;;;;4.87;3.87;;;23.80;99.90;;;;;;5071357;28;20443;-67
2022/05/17 08:59:00;;;;;;;4.87;3.90;;;23.70;99.90;;;;;;5071492;28;20532;-67
2022/05/17 09:01:36;;;;;;;6.50;3.47;;;23.80;99.90;;;;;;5070979;28;20537;-67
2022/05/17 09:04:21;;;;;;;6.40;3.67;;;24.40;99.90;;;;;;5071500;28;20912;-67
2022/05/17 09:06:54;;;;;;;5.20;3.40;;;24.40;99.90;;;;;;5071105;28;20518;-68
2022/05/17 09:09:26;;;;;;;9.70;4.33;;;24.90;99.90;;;;;;5071168;28;20474;-68
2022/05/17 09:11:58;;;;;;;5.93;3.70;;;25.00;99.80;;;;;;5070847;28;20447;-67
2022/05/17 09:14:30;;;;;;;5.10;3.50;;;24.80;99.50;;;;;;5070904;28;20546;-67
2022/05/17 09:17:02;;;;;;;6.30;4.80;;;25.20;99.90;;;;;;5070749;28;20485;-67
2022/05/17 09:19:29;;;;;;;4.60;3.20;;;25.50;98.40;;;;;;5070731;28;20578;-67
2022/05/17 09:21:59;;;;;;;6.17;3.50;;;25.80;99.90;;;;;;5070746;28;20826;-67
2022/05/17 09:24:30;;;;;;;4.50;3.60;;;26.30;99.90;;;;;;5070907;28;20454;-67
2022/05/17 09:27:04;;;;;;;4.30;3.33;;;26.70;97.30;;;;;;5070696;28;20443;-68
2022/05/17 09:29:38;;;;;;;5.60;3.80;;;26.90;96.40;;;;;;5070831;28;20459;-67
2022/05/17 09:32:07;;;;;;;5.13;3.77;;;27.30;98.00;;;;;;5070168;28;20450;-68
2022/05/17 09:34:37;;;;;;;8.10;4.40;;;27.70;96.40;;;;;;5070767;28;20454;-68
2022/05/17 09:37:07;;;;;;;5.87;3.27;;;26.80;94.60;;;;;;5070714;28;20592;-67
2022/05/17 09:39:34;;;;;;;4.00;3.07;;;26.80;96.10;;;;;;5070370;28;21060;-68
2022/05/17 09:42:04;;;;;;;4.87;3.67;;;27.20;96.60;;;;;;5070510;28;20447;-68
2022/05/17 09:44:33;;;;;;;5.13;3.50;;;27.50;96.50;;;;;;5070178;28;20447;-67
2022/05/17 09:47:05;;;;;;;4.67;3.57;;;27.30;92.90;;;;;;5070243;28;20545;-67
2022/05/17 09:52:34;;;;;;;7.17;3.37;;;25.80;92.90;;;;;;5070256;28;20434;-67
2022/05/17 09:55:21;;;;;;;9.40;3.70;;;25.80;93.70;;;;;;5070026;28;20538;-67
2022/05/17 09:57:58;;;;;;;5.30;3.63;;;26.80;94.80;;;;;;5070239;28;20494;-67
2022/05/17 10:00:30;;;;;;;8.83;3.00;;;27.60;92.80;;;;;;5069879;28;20838;-67
2022/05/17 10:03:01;;;;;;;5.17;3.33;;;28.20;93.30;;;;;;5069972;28;20453;-68
2022/05/17 10:05:30;;;;;;;4.87;3.00;;;28.40;88.20;;;;;;5069980;28;20526;-67
2022/05/17 10:08:00;;;;;;;4.60;3.47;;;28.40;89.60;;;;;;5070013;28;20452;-67
2022/05/17 10:10:35;;;;;;;5.00;3.70;;;28.50;87.20;;;;;;5069620;28;20960;-67
2022/05/17 10:13:12;;;;;;;4.53;3.20;;;28.60;87.90;;;;;;5069900;28;20443;-67
2022/05/17 10:15:41;;;;;;;6.03;3.57;;;28.40;86.30;;;;;;5069778;28;20936;-67
2022/05/17 10:18:26;;;;;;;5.03;2.87;;;28.50;88.00;;;;;;5070060;28;20491;-67
2022/05/17 10:20:58;;;;;;;5.27;3.10;;;28.50;90.00;;;;;;5069608;28;20443;-66
2022/05/17 10:23:31;;;;;;;4.67;3.47;;;29.40;92.00;;;;;;5069872;28;20530;-67
2022/05/17 10:26:02;;;;;;;6.33;3.10;;;29.80;84.20;;;;;;5069602;28;20443;-67
2022/05/17 10:28:38;;;;;;;6.57;3.63;;;29.50;89.90;;;;;;5069795;28;20475;-67
2022/05/17 10:31:13;;;;;;;6.47;3.50;;;29.90;88.90;;;;;;5069295;28;21021;-67
2022/05/17 10:34:06;;;;;;;3.53;2.80;;;30.40;84.60;;;;;;5069559;28;20487;-67
2022/05/17 10:36:41;;;;;;;5.20;3.60;;;30.60;80.20;;;;;;5069432;28;20446;-67
2022/05/17 10:39:20;;;;;;;4.53;3.17;;;30.60;82.30;;;;;;5069414;28;20570;-67
2022/05/17 10:41:47;;;;;;;4.77;3.30;;;31.10;83.80;;;;;;5069232;28;20439;-67
2022/05/17 10:44:19;;;;;;;5.33;3.23;;;31.60;78.40;;;;;;5070796;28;20874;-67
2022/05/17 10:46:53;;;;;;;7.97;3.30;;;31.30;77.50;;;;;;5071660;28;20455;-67
2022/05/17 10:49:30;;;;;;;5.57;4.10;;;31.20;83.10;;;;;;5070116;28;20467;-68
2022/05/17 10:52:02;;;;;;;4.40;3.20;;;31.40;79.00;;;;;;5070889;28;20442;-67
2022/05/17 10:54:44;;;;;;;5.40;3.30;;;31.60;80.80;;;;;;5073234;28;20447;-68
2022/05/17 10:57:19;;;;;;;4.20;2.60;;;32.00;73.00;;;;;;5070468;28;21027;-67
2022/05/17 10:59:55;;;;;;;5.30;3.50;;;32.10;79.10;;;;;;5068595;28;20482;-65
2022/05/17 11:02:40;;;;;;;4.27;3.03;;;32.40;75.40;;;;;;5064234;28;20533;-66
2022/05/17 11:05:23;;;;;;;5.97;3.20;;;32.50;76.30;;;;;;5071067;28;20488;-69
2022/05/17 11:08:14;;;;;;;5.80;3.53;;;32.40;76.70;;;;;;5057924;28;20439;-68
2022/05/17 11:10:53;;;;;;;5.50;3.60;;;32.70;73.10;;;;;;5069999;28;20563;-67
2022/05/17 11:13:25;;;;;;;5.00;3.60;;;32.30;72.70;;;;;;5068581;28;20447;-68
2022/05/17 11:15:56;;;;;;;4.40;3.00;;;32.30;69.50;;;;;;5066618;28;20518;-67
2022/05/17 11:18:33;;;;;;;7.07;3.30;;;32.50;70.00;;;;;;5071706;28;21045;-67
2022/05/17 11:21:05;;;;;;;5.80;3.50;;;32.70;70.20;;;;;;5071854;28;20457;-67
2022/05/17 11:23:46;;;;;;;8.47;3.07;;;32.70;73.60;;;;;;5072511;28;20959;-68
2022/05/17 11:26:46;;;;;;;4.37;2.87;;;32.90;70.90;;;;;;5071845;28;20435;-68
2022/05/17 11:29:36;;;;;;;6.80;2.80;;;33.30;73.70;;;;;;5071797;28;20506;-68
2022/05/17 11:32:21;;;;;;;5.33;3.10;;;33.70;70.50;;;;;;5071410;28;20439;-66
2022/05/17 11:34:48;;;;;;;7.27;3.63;;;33.60;70.90;;;;;;5072038;28;20451;-66
2022/05/17 11:37:48;;;;;;;4.00;2.67;;;33.40;68.60;;;;;;5071838;28;20546;-68
2022/05/17 11:40:58;;;;;;;4.60;2.70;;;33.10;69.50;;;;;;5071093;28;20844;-67
2022/05/17 11:43:49;;;;;;;5.80;2.90;;;33.20;67.40;;;;;;5071573;28;20435;-68
2022/05/17 11:46:43;;;;;;;5.30;2.57;;;32.80;60.00;;;;;;5071423;28;20832;-68
2022/05/17 11:49:41;;;;;;;3.60;2.50;;;32.30;69.10;;;;;;5071411;28;21138;-68
2022/05/17 11:52:27;;;;;;;3.90;2.20;;;32.70;70.90;;;;;;5071106;28;20443;-67
2022/05/17 11:54:57;;;;;;;5.70;2.20;;;33.40;66.40;;;;;;5070972;28;20454;-67
2022/05/17 11:58:03;;;;;;;4.63;2.07;;;31.20;59.10;;;;;;5070582;28;20453;-67
2022/05/17 12:00:53;;;;;;;3.70;2.17;;;30.70;66.80;;;;;;5070344;28;20454;-68
2022/05/17 12:03:51;;;;;;;3.60;1.93;;;30.70;71.70;;;;;;5070908;28;20443;-67
2022/05/17 12:06:44;;;;;;;3.00;1.90;;;31.30;70.10;;;;;;5071162;28;20450;-68
2022/05/17 12:09:29;;;;;;;4.73;1.77;;;32.00;59.40;;;;;;5070666;28;20489;-68
2022/05/17 12:12:30;;;;;;;6.63;2.57;;;32.20;58.70;;;;;;5070642;28;20447;-67
2022/05/17 12:15:13;;;;;;;3.80;1.50;;;32.80;61.70;;;;;;5070868;28;20472;-67
2022/05/17 12:17:47;;;;;;;3.47;1.70;;;33.40;61.00;;;;;;5071067;28;20510;-68
2022/05/17 12:20:18;;;;;;;3.90;1.73;;;33.50;55.50;;;;;;5070157;28;20936;-68
2022/05/17 12:22:51;;;;;;;3.27;1.70;;;33.60;56.20;;;;;;5071023;28;20453;-68
2022/05/17 12:25:24;;;;;;;3.30;2.00;;;33.60;57.60;;;;;;5071316;28;20941;-67
2022/05/17 12:27:53;;;;;;;3.60;1.70;;;33.30;55.60;;;;;;5071687;28;20530;-67
2022/05/17 12:33:11;;;;;;;4.10;2.17;;;33.20;62.10;;;;;;5070453;28;20455;-66
2022/05/17 12:35:38;;;;;;;3.17;1.87;;;33.60;61.70;;;;;;5071711;28;20439;-66
2022/05/17 12:43:02;;;;;;;8.27;2.00;;;34.50;61.90;;;;;;5071179;28;20485;-66
2022/05/17 12:43:39;;;;;;;3.30;1.70;;;35.30;56.30;;;;;;5071302;28;20566;-65
2022/05/17 12:46:14;;;;;;;2.90;1.77;;;34.50;56.90;;;;;;5071364;28;20479;-65
2022/05/17 12:48:42;;;;;;;5.43;1.63;;;35.00;56.60;;;;;;5071056;28;20473;-65
2022/05/17 12:51:11;;;;;;;2.77;1.80;;;35.40;55.70;;;;;;5071098;28;21122;-66
2022/05/17 12:53:41;;;;;;;3.70;2.17;;;34.90;52.70;;;;;;5071026;28;20497;-66
2022/05/17 12:56:10;;;;;;;6.10;2.10;;;33.80;55.20;;;;;;5071606;28;20451;-66
2022/05/17 12:58:48;;;;;;;3.97;2.07;;;33.20;52.80;;;;;;5071217;28;20566;-66
2022/05/17 13:01:21;;;;;;;4.00;1.90;;;33.50;59.30;;;;;;5070141;28;20462;-65
2022/05/17 13:03:48;;;;;;;3.47;2.07;;;33.50;53.50;;;;;;5065355;28;20443;-65
2022/05/17 13:06:15;;;;;;;3.80;1.70;;;33.60;58.80;;;;;;5067791;28;20546;-65
2022/05/17 13:08:42;;;;;;;3.63;2.00;;;34.30;57.00;;;;;;5065690;28;20886;-66
2022/05/17 13:11:13;;;;;;;3.83;1.73;;;34.20;54.50;;;;;;5067270;28;20447;-66
2022/05/17 13:13:42;;;;;;;4.03;1.60;;;34.50;54.50;;;;;;5066573;28;20447;-66